Time;durP1;ratioP1;P1;durP2;ratioP2;P2;SDS_P1;SDS_P2;PMS_P1;PMS_P2;Temp;Humidity;BMP_temperature;BMP_pressure;BME280_temperature;BME280_humidity;BME280_pressure;Samples;Min_cycle;Max_cycle;Signal;HPM_P1;HPM_P2
2023/09/13 00:01:12;;;;;;;;;;;;;;;;;;5083665;28;19916;-58
2023/09/13 00:03:38;;;;;;;;;;;;;;;;;;5079697;28;20007;-59
2023/09/13 00:06:04;;;;;;;;;;;;;;;;;;5084987;28;20002;-58
2023/09/13 00:08:30;;;;;;;;;;;;;;;;;;5081753;28;19913;-59
2023/09/13 00:10:56;;;;;;;;;;;;;;;;;;5080886;28;19993;-58
2023/09/13 00:13:22;;;;;;;;;;;;;;;;;;5080374;28;20490;-58
2023/09/13 00:15:47;;;;;;;;;;;;;;;;;;5074605;28;19912;-59
2023/09/13 00:18:13;;;;;;;;;;;;;;;;;;5084621;28;20001;-58
2023/09/13 00:20:40;;;;;;;;;;;;;;;;;;5071151;28;20344;-58
2023/09/13 00:23:06;;;;;;;;;;;;;;;;;;5073343;28;20410;-58
2023/09/13 00:25:32;;;;;;;;;;;;;;;;;;5086023;28;19947;-59
2023/09/13 00:27:58;;;;;;;;;;;;;;;;;;5080430;28;19980;-58
2023/09/13 00:30:24;;;;;;;;;;;;;;;;;;5080166;28;20455;-59
2023/09/13 00:32:50;;;;;;;;;;;;;;;;;;5088464;28;19916;-58
2023/09/13 00:35:15;;;;;;;;;;;;;;;;;;5085678;28;19978;-59
2023/09/13 00:37:41;;;;;;;;;;;;;;;;;;5084697;28;19959;-58
2023/09/13 00:40:07;;;;;;;;;;;;;;;;;;5076413;28;19919;-58
2023/09/13 00:42:33;;;;;;;;;;;;;;;;;;5086599;28;19931;-58
2023/09/13 00:44:59;;;;;;;;;;;;;;;;;;5080939;28;19920;-59
2023/09/13 00:47:25;;;;;;;;;;;;;;;;;;5076568;28;19970;-60
2023/09/13 00:49:51;;;;;;;;;;;;;;;;;;5076882;28;19916;-61
2023/09/13 00:52:17;;;;;;;;;;;;;;;;;;5084038;28;19947;-60
2023/09/13 00:54:43;;;;;;;;;;;;;;;;;;5081137;28;19947;-61
2023/09/13 00:57:09;;;;;;;;;;;;;;;;;;5078978;28;19916;-61
2023/09/13 00:59:35;;;;;;;;;;;;;;;;;;5081955;28;20447;-61
2023/09/13 01:02:01;;;;;;;;;;;;;;;;;;5081947;28;20023;-62
2023/09/13 01:04:27;;;;;;;;;;;;;;;;;;5080972;28;19912;-65
2023/09/13 01:06:52;;;;;;;;;;;;;;;;;;5085558;28;19912;-64
2023/09/13 01:09:18;;;;;;;;;;;;;;;;;;5074883;28;19912;-64
2023/09/13 01:11:44;;;;;;;;;;;;;;;;;;5083008;28;20315;-63
2023/09/13 01:14:10;;;;;;;;;;;;;;;;;;5077604;28;19924;-62
2023/09/13 01:16:37;;;;;;;;;;;;;;;;;;5081251;28;19952;-64
2023/09/13 01:19:03;;;;;;;;;;;;;;;;;;5079491;28;20727;-64
2023/09/13 01:21:32;;;;;;;;;;;;;;;;;;5086012;28;20003;-64
2023/09/13 01:23:58;;;;;;;;;;;;;;;;;;5082449;28;19920;-64
2023/09/13 01:26:24;;;;;;;;;;;;;;;;;;5076940;28;19936;-64
2023/09/13 01:28:50;;;;;;;;;;;;;;;;;;5081183;28;19947;-63
2023/09/13 01:31:20;;;;;;;;;;;;;;;;;;5081997;28;19916;-64
2023/09/13 01:33:46;;;;;;;;;;;;;;;;;;5086446;28;19919;-63
2023/09/13 01:36:12;;;;;;;;;;;;;;;;;;5084383;28;19963;-64
2023/09/13 01:38:38;;;;;;;;;;;;;;;;;;5089757;28;19927;-64
2023/09/13 01:41:04;;;;;;;;;;;;;;;;;;5083556;28;19923;-63
2023/09/13 01:43:30;;;;;;;;;;;;;;;;;;5089871;28;20445;-64
2023/09/13 01:45:56;;;;;;;;;;;;;;;;;;5076066;28;19908;-63
2023/09/13 01:48:22;;;;;;;;;;;;;;;;;;5080735;28;19923;-61
2023/09/13 01:50:48;;;;;;;;;;;;;;;;;;5087329;28;20331;-62
2023/09/13 01:53:14;;;;;;;;;;;;;;;;;;5093725;28;19958;-61
2023/09/13 01:55:40;;;;;;;;;;;;;;;;;;5087917;28;19960;-61
2023/09/13 01:58:06;;;;;;;;;;;;;;;;;;5078864;28;19913;-61
2023/09/13 02:00:32;;;;;;;;;;;;;;;;;;5081475;28;20007;-62
2023/09/13 02:02:58;;;;;;;;;;;;;;;;;;5084882;28;20006;-62
2023/09/13 02:05:24;;;;;;;;;;;;;;;;;;5088694;28;19943;-61
2023/09/13 02:07:49;;;;;;;;;;;;;;;;;;5075918;28;19923;-62
2023/09/13 02:10:15;;;;;;;;;;;;;;;;;;5087206;28;19916;-57
2023/09/13 02:12:41;;;;;;;;;;;;;;;;;;5094914;28;19970;-59
2023/09/13 02:15:07;;;;;;;;;;;;;;;;;;5083714;28;19921;-57
2023/09/13 02:17:33;;;;;;;;;;;;;;;;;;5075395;28;19948;-58
2023/09/13 02:19:59;;;;;;;;;;;;;;;;;;5083213;28;20333;-59
2023/09/13 02:22:25;;;;;;;;;;;;;;;;;;5092287;28;19959;-58
2023/09/13 02:24:51;;;;;;;;;;;;;;;;;;5089418;28;20451;-57
2023/09/13 02:27:17;;;;;;;;;;;;;;;;;;5079456;28;19927;-57
2023/09/13 02:29:43;;;;;;;;;;;;;;;;;;5090037;28;20054;-57
2023/09/13 02:32:08;;;;;;;;;;;;;;;;;;5091187;28;19916;-57
2023/09/13 02:34:34;;;;;;;;;;;;;;;;;;5085402;28;20394;-59
2023/09/13 02:37:00;;;;;;;;;;;;;;;;;;5080854;28;19916;-57
2023/09/13 02:39:26;;;;;;;;;;;;;;;;;;5077325;28;19919;-60
2023/09/13 02:41:52;;;;;;;;;;;;;;;;;;5085082;28;19973;-58
2023/09/13 02:44:18;;;;;;;;;;;;;;;;;;5084732;28;19912;-58
2023/09/13 02:46:44;;;;;;;;;;;;;;;;;;5080842;28;20336;-57
2023/09/13 02:49:10;;;;;;;;;;;;;;;;;;5080232;28;19990;-58
2023/09/13 02:51:36;;;;;;;;;;;;;;;;;;5080994;28;19912;-57
2023/09/13 02:54:02;;;;;;;;;;;;;;;;;;5086277;28;20005;-57
2023/09/13 02:56:28;;;;;;;;;;;;;;;;;;5084120;28;19920;-57
2023/09/13 02:58:54;;;;;;;;;;;;;;;;;;5082410;28;19936;-57
2023/09/13 03:01:21;;;;;;;;;;;;;;;;;;5079736;28;19920;-57
2023/09/13 03:03:47;;;;;;;;;;;;;;;;;;5083386;28;19912;-57
2023/09/13 03:06:13;;;;;;;;;;;;;;;;;;5086171;28;20253;-58
2023/09/13 03:08:39;;;;;;;;;;;;;;;;;;5090495;28;20132;-57
2023/09/13 03:11:05;;;;;;;;;;;;;;;;;;5081751;28;19912;-58
2023/09/13 03:13:31;;;;;;;;;;;;;;;;;;5090909;28;19916;-57
2023/09/13 03:15:57;;;;;;;;;;;;;;;;;;5078803;28;19961;-57
2023/09/13 03:18:23;;;;;;;;;;;;;;;;;;5079158;28;20011;-58
2023/09/13 03:20:49;;;;;;;;;;;;;;;;;;5079898;28;19936;-61
2023/09/13 03:23:15;;;;;;;;;;;;;;;;;;5083031;28;19958;-61
2023/09/13 03:25:41;;;;;;;;;;;;;;;;;;5077628;28;19966;-61
2023/09/13 03:28:07;;;;;;;;;;;;;;;;;;5077477;28;19908;-62
2023/09/13 03:30:33;;;;;;;;;;;;;;;;;;5091358;28;19916;-62
2023/09/13 03:32:59;;;;;;;;;;;;;;;;;;5084442;28;20252;-61
2023/09/13 03:35:25;;;;;;;;;;;;;;;;;;5078423;28;19951;-61
2023/09/13 03:37:51;;;;;;;;;;;;;;;;;;5074025;28;20376;-61
2023/09/13 03:40:17;;;;;;;;;;;;;;;;;;5080846;28;19952;-62
2023/09/13 03:42:43;;;;;;;;;;;;;;;;;;5092215;28;19916;-61
2023/09/13 03:45:09;;;;;;;;;;;;;;;;;;5080058;28;19921;-61
2023/09/13 03:47:34;;;;;;;;;;;;;;;;;;5079054;28;20355;-61
2023/09/13 03:50:00;;;;;;;;;;;;;;;;;;5079715;28;19960;-61
2023/09/13 03:52:26;;;;;;;;;;;;;;;;;;5085156;28;20279;-61
2023/09/13 03:54:52;;;;;;;;;;;;;;;;;;5086434;28;19985;-61
2023/09/13 03:57:18;;;;;;;;;;;;;;;;;;5086574;28;19966;-60
2023/09/13 03:59:44;;;;;;;;;;;;;;;;;;5082566;28;19952;-60
2023/09/13 04:02:10;;;;;;;;;;;;;;;;;;5081045;28;19920;-61
2023/09/13 04:04:36;;;;;;;;;;;;;;;;;;5074297;28;20391;-61
2023/09/13 04:07:02;;;;;;;;;;;;;;;;;;5088018;28;19947;-61
2023/09/13 04:09:27;;;;;;;;;;;;;;;;;;5077613;28;20317;-62
2023/09/13 04:11:53;;;;;;;;;;;;;;;;;;5075703;28;19973;-61
2023/09/13 04:14:19;;;;;;;;;;;;;;;;;;5078169;28;19916;-61
2023/09/13 04:16:45;;;;;;;;;;;;;;;;;;5078376;28;19958;-62
2023/09/13 04:19:11;;;;;;;;;;;;;;;;;;5082606;28;19913;-61
2023/09/13 04:21:37;;;;;;;;;;;;;;;;;;5085436;28;20371;-62
2023/09/13 04:24:06;;;;;;;;;;;;;;;;;;5083680;28;19966;-61
2023/09/13 04:26:31;;;;;;;;;;;;;;;;;;5073217;28;19908;-60
2023/09/13 04:28:57;;;;;;;;;;;;;;;;;;5082002;28;20402;-61
2023/09/13 04:31:23;;;;;;;;;;;;;;;;;;5080458;28;19944;-60
2023/09/13 04:33:49;;;;;;;;;;;;;;;;;;5077138;28;20280;-59
2023/09/13 04:36:15;;;;;;;;;;;;;;;;;;5079893;28;19908;-59
2023/09/13 04:38:41;;;;;;;;;;;;;;;;;;5085530;28;19954;-59
2023/09/13 04:41:10;;;;;;;;;;;;;;;;;;5080882;28;19943;-60
2023/09/13 04:43:36;;;;;;;;;;;;;;;;;;5072197;28;19928;-60
2023/09/13 04:46:01;;;;;;;;;;;;;;;;;;5074851;28;20394;-60
2023/09/13 04:48:27;;;;;;;;;;;;;;;;;;5078755;28;19950;-60
2023/09/13 04:50:53;;;;;;;;;;;;;;;;;;5071136;28;19916;-60
2023/09/13 04:53:19;;;;;;;;;;;;;;;;;;5079385;28;20326;-61
2023/09/13 04:55:45;;;;;;;;;;;;;;;;;;5072876;28;20418;-58
2023/09/13 04:58:11;;;;;;;;;;;;;;;;;;5082774;28;19916;-60
2023/09/13 05:00:37;;;;;;;;;;;;;;;;;;5083542;28;19916;-60
2023/09/13 05:03:03;;;;;;;;;;;;;;;;;;5077421;28;20034;-60
2023/09/13 05:05:29;;;;;;;;;;;;;;;;;;5078438;28;20283;-60
2023/09/13 05:07:55;;;;;;;;;;;;;;;;;;5075654;28;19932;-60
2023/09/13 05:10:20;;;;;;;;;;;;;;;;;;5074836;28;19944;-60
2023/09/13 05:12:46;;;;;;;;;;;;;;;;;;5085652;28;19998;-60
2023/09/13 05:15:12;;;;;;;;;;;;;;;;;;5077824;28;19927;-60
2023/09/13 05:17:38;;;;;;;;;;;;;;;;;;5079051;28;19992;-60
2023/09/13 05:20:04;;;;;;;;;;;;;;;;;;5074544;28;20400;-60
2023/09/13 05:22:30;;;;;;;;;;;;;;;;;;5078309;28;20020;-60
2023/09/13 05:24:56;;;;;;;;;;;;;;;;;;5081237;28;19932;-60
2023/09/13 05:27:22;;;;;;;;;;;;;;;;;;5084929;28;19998;-60
2023/09/13 05:29:48;;;;;;;;;;;;;;;;;;5080740;28;19908;-60
2023/09/13 05:32:14;;;;;;;;;;;;;;;;;;5081175;28;20368;-60
2023/09/13 05:34:40;;;;;;;;;;;;;;;;;;5075587;28;19955;-61
2023/09/13 05:37:06;;;;;;;;;;;;;;;;;;5073563;28;19920;-60
2023/09/13 05:39:33;;;;;;;;;;;;;;;;;;5079154;28;20217;-61
2023/09/13 05:42:01;;;;;;;;;;;;;;;;;;5088473;28;19974;-58
2023/09/13 05:44:27;;;;;;;;;;;;;;;;;;5079284;28;20027;-57
2023/09/13 05:46:53;;;;;;;;;;;;;;;;;;5082940;28;19936;-58
2023/09/13 05:49:19;;;;;;;;;;;;;;;;;;5080563;28;19908;-57
2023/09/13 05:51:48;;;;;;;;;;;;;;;;;;5082760;28;19926;-57
2023/09/13 05:54:14;;;;;;;;;;;;;;;;;;5071029;28;20376;-56
2023/09/13 05:56:41;;;;;;;;;;;;;;;;;;5071070;28;19912;-56
2023/09/13 05:59:07;;;;;;;;;;;;;;;;;;5083937;28;20015;-58
2023/09/13 06:01:33;;;;;;;;;;;;;;;;;;5080373;28;20358;-56
2023/09/13 06:03:59;;;;;;;;;;;;;;;;;;5071773;28;19944;-57
2023/09/13 06:06:25;;;;;;;;;;;;;;;;;;5082258;28;19958;-57
2023/09/13 06:08:51;;;;;;;;;;;;;;;;;;5071014;28;19920;-56
2023/09/13 06:11:17;;;;;;;;;;;;;;;;;;5086698;28;19967;-58
2023/09/13 06:13:43;;;;;;;;;;;;;;;;;;5090982;28;19916;-57
2023/09/13 06:16:09;;;;;;;;;;;;;;;;;;5077206;28;19964;-58
2023/09/13 06:18:35;;;;;;;;;;;;;;;;;;5082167;28;19908;-58
2023/09/13 06:21:01;;;;;;;;;;;;;;;;;;5077277;28;20007;-57
2023/09/13 06:23:27;;;;;;;;;;;;;;;;;;5093812;28;20010;-57
2023/09/13 06:25:53;;;;;;;;;;;;;;;;;;5080918;28;20019;-58
2023/09/13 06:28:19;;;;;;;;;;;;;;;;;;5078390;28;19933;-57
2023/09/13 06:30:45;;;;;;;;;;;;;;;;;;5094071;28;19966;-57
2023/09/13 06:33:10;;;;;;;;;;;;;;;;;;5081113;28;19913;-57
2023/09/13 06:35:37;;;;;;;;;;;;;;;;;;5073787;28;20292;-58
2023/09/13 06:38:03;;;;;;;;;;;;;;;;;;5075895;28;20015;-58
2023/09/13 06:40:28;;;;;;;;;;;;;;;;;;5078939;28;20045;-58
2023/09/13 06:42:54;;;;;;;;;;;;;;;;;;5084182;28;19920;-57
2023/09/13 06:45:20;;;;;;;;;;;;;;;;;;5090441;28;19919;-57
2023/09/13 06:47:47;;;;;;;;;;;;;;;;;;5090273;28;19908;-58
2023/09/13 06:50:13;;;;;;;;;;;;;;;;;;5086960;28;19909;-62
2023/09/13 06:52:39;;;;;;;;;;;;;;;;;;5083361;28;20121;-62
2023/09/13 06:55:05;;;;;;;;;;;;;;;;;;5076472;28;19912;-60
2023/09/13 06:57:31;;;;;;;;;;;;;;;;;;5080485;28;20355;-62
2023/09/13 06:59:57;;;;;;;;;;;;;;;;;;5083422;28;19999;-61
2023/09/13 07:02:23;;;;;;;;;;;;;;;;;;5083454;28;19912;-61
2023/09/13 07:04:49;;;;;;;;;;;;;;;;;;5077823;28;19992;-62
2023/09/13 07:07:15;;;;;;;;;;;;;;;;;;5073650;28;19932;-62
2023/09/13 07:09:42;;;;;;;;;;;;;;;;;;5081801;28;20337;-61
2023/09/13 07:12:08;;;;;;;;;;;;;;;;;;5073997;28;19955;-61
2023/09/13 07:14:33;;;;;;;;;;;;;;;;;;5081737;28;20005;-60
2023/09/13 07:16:59;;;;;;;;;;;;;;;;;;5090017;28;20353;-62
2023/09/13 07:19:25;;;;;;;;;;;;;;;;;;5088075;28;19963;-61
2023/09/13 07:21:51;;;;;;;;;;;;;;;;;;5072890;28;19990;-62
2023/09/13 07:24:17;;;;;;;;;;;;;;;;;;5085505;28;20043;-62
2023/09/13 07:26:43;;;;;;;;;;;;;;;;;;5083245;28;19912;-62
2023/09/13 07:29:09;;;;;;;;;;;;;;;;;;5088866;28;19940;-62
2023/09/13 07:31:35;;;;;;;;;;;;;;;;;;5082601;28;20428;-62
2023/09/13 07:34:02;;;;;;;;;;;;;;;;;;5085013;28;19939;-62
2023/09/13 07:36:28;;;;;;;;;;;;;;;;;;5082192;28;19908;-62
2023/09/13 07:38:55;;;;;;;;;;;;;;;;;;5086209;28;19954;-62
2023/09/13 07:41:21;;;;;;;;;;;;;;;;;;5075961;28;19916;-61
2023/09/13 07:43:47;;;;;;;;;;;;;;;;;;5084983;28;19918;-62
2023/09/13 07:46:13;;;;;;;;;;;;;;;;;;5087375;28;19912;-61
2023/09/13 07:48:39;;;;;;;;;;;;;;;;;;5086312;28;19958;-62
2023/09/13 07:51:05;;;;;;;;;;;;;;;;;;5085347;28;19938;-62
2023/09/13 07:53:31;;;;;;;;;;;;;;;;;;5079060;28;20069;-62
2023/09/13 07:55:59;;;;;;;;;;;;;;;;;;5075760;28;19954;-62
2023/09/13 07:58:25;;;;;;;;;;;;;;;;;;5077230;28;20344;-61
2023/09/13 08:00:51;;;;;;;;;;;;;;;;;;5078865;28;19963;-58
2023/09/13 08:03:17;;;;;;;;;;;;;;;;;;5077150;28;19916;-57
2023/09/13 08:05:45;;;;;;;;;;;;;;;;;;5080452;28;19961;-58
2023/09/13 08:08:11;;;;;;;;;;;;;;;;;;5078747;28;20374;-58
2023/09/13 08:10:40;;;;;;;;;;;;;;;;;;5088114;28;19958;-58
2023/09/13 08:13:06;;;;;;;;;;;;;;;;;;5082391;28;20296;-58
2023/09/13 08:15:32;;;;;;;;;;;;;;;;;;5086987;28;19944;-57
2023/09/13 08:17:58;;;;;;;;;;;;;;;;;;5074741;28;19923;-57
2023/09/13 08:20:24;;;;;;;;;;;;;;;;;;5079575;28;20444;-59
2023/09/13 08:22:50;;;;;;;;;;;;;;;;;;5086322;28;19996;-57
2023/09/13 08:25:16;;;;;;;;;;;;;;;;;;5073230;28;19912;-59
2023/09/13 08:27:42;;;;;;;;;;;;;;;;;;5073751;28;19912;-57
2023/09/13 08:30:08;;;;;;;;;;;;;;;;;;5071708;28;20015;-59
2023/09/13 08:32:34;;;;;;;;;;;;;;;;;;5075708;28;19912;-58
2023/09/13 08:35:00;;;;;;;;;;;;;;;;;;5082493;28;20394;-59
2023/09/13 08:37:26;;;;;;;;;;;;;;;;;;5074652;28;19955;-58
2023/09/13 08:39:52;;;;;;;;;;;;;;;;;;5076107;28;19962;-57
2023/09/13 08:42:18;;;;;;;;;;;;;;;;;;5076812;28;19915;-58
2023/09/13 08:44:44;;;;;;;;;;;;;;;;;;5087333;28;20415;-58
2023/09/13 08:47:10;;;;;;;;;;;;;;;;;;5087775;28;19952;-58
2023/09/13 08:49:36;;;;;;;;;;;;;;;;;;5078899;28;19917;-58
2023/09/13 08:52:02;;;;;;;;;;;;;;;;;;5085230;28;20343;-58
2023/09/13 08:54:28;;;;;;;;;;;;;;;;;;5077991;28;19912;-58
2023/09/13 08:56:54;;;;;;;;;;;;;;;;;;5073325;28;20303;-58
2023/09/13 08:59:20;;;;;;;;;;;;;;;;;;5071284;28;19916;-58
2023/09/13 09:01:46;;;;;;;;;;;;;;;;;;5083749;28;20073;-57
2023/09/13 09:04:14;;;;;;;;;;;;;;;;;;5081797;28;19912;-58
2023/09/13 09:06:40;;;;;;;;;;;;;;;;;;5074416;28;19935;-58
2023/09/13 09:09:07;;;;;;;;;;;;;;;;;;5071500;28;19999;-57
2023/09/13 09:11:33;;;;;;;;;;;;;;;;;;5082039;28;19919;-60
2023/09/13 09:13:59;;;;;;;;;;;;;;;;;;5078737;28;20367;-60
2023/09/13 09:16:25;;;;;;;;;;;;;;;;;;5083637;28;20007;-60
2023/09/13 09:18:51;;;;;;;;;;;;;;;;;;5081798;28;20001;-60
2023/09/13 09:21:17;;;;;;;;;;;;;;;;;;5070529;28;19924;-60
2023/09/13 09:23:43;;;;;;;;;;;;;;;;;;5074652;28;19924;-60
2023/09/13 09:26:08;;;;;;;;;;;;;;;;;;5082907;28;20272;-60
2023/09/13 09:28:34;;;;;;;;;;;;;;;;;;5081269;28;19969;-60
2023/09/13 09:31:01;;;;;;;;;;;;;;;;;;5073172;28;19981;-60
2023/09/13 09:33:30;;;;;;;;;;;;;;;;;;5082230;28;19919;-60
2023/09/13 09:35:56;;;;;;;;;;;;;;;;;;5077691;28;19912;-60
2023/09/13 09:38:22;;;;;;;;;;;;;;;;;;5073760;28;19948;-60
2023/09/13 09:40:49;;;;;;;;;;;;;;;;;;5074373;28;19912;-60
2023/09/13 09:43:15;;;;;;;;;;;;;;;;;;5079310;28;19912;-60
2023/09/13 09:45:40;;;;;;;;;;;;;;;;;;5073693;28;19975;-60
2023/09/13 09:48:06;;;;;;;;;;;;;;;;;;5077196;28;20361;-60
2023/09/13 09:50:32;;;;;;;;;;;;;;;;;;5071829;28;19915;-60
2023/09/13 09:52:58;;;;;;;;;;;;;;;;;;5080944;28;20257;-60
2023/09/13 09:55:24;;;;;;;;;;;;;;;;;;5076411;28;19919;-60
2023/09/13 09:57:50;;;;;;;;;;;;;;;;;;5093979;28;19965;-60
2023/09/13 10:00:16;;;;;;;;;;;;;;;;;;5082206;28;20304;-60
2023/09/13 10:02:42;;;;;;;;;;;;;;;;;;5087443;28;20007;-61
2023/09/13 10:05:08;;;;;;;;;;;;;;;;;;5077853;28;20007;-60
2023/09/13 10:07:34;;;;;;;;;;;;;;;;;;5078560;28;19908;-60
2023/09/13 10:09:59;;;;;;;;;;;;;;;;;;5087703;28;20011;-60
2023/09/13 10:12:25;;;;;;;;;;;;;;;;;;5074472;28;19916;-60
2023/09/13 10:14:51;;;;;;;;;;;;;;;;;;5088268;28;19974;-60
2023/09/13 10:17:17;;;;;;;;;;;;;;;;;;5079899;28;19920;-60
2023/09/13 10:19:43;;;;;;;;;;;;;;;;;;5074298;28;19917;-60
2023/09/13 10:22:09;;;;;;;;;;;;;;;;;;5074154;28;20443;-57
2023/09/13 10:24:36;;;;;;;;;;;;;;;;;;5076310;28;19999;-57
2023/09/13 10:27:02;;;;;;;;;;;;;;;;;;5085594;28;19912;-57
2023/09/13 10:29:27;;;;;;;;;;;;;;;;;;5094180;28;20328;-58
2023/09/13 10:31:53;;;;;;;;;;;;;;;;;;5080124;28;19965;-57
2023/09/13 10:34:19;;;;;;;;;;;;;;;;;;5077632;28;19960;-59
2023/09/13 10:36:45;;;;;;;;;;;;;;;;;;5091493;28;19912;-57
2023/09/13 10:39:11;;;;;;;;;;;;;;;;;;5089836;28;20053;-58
2023/09/13 10:41:37;;;;;;;;;;;;;;;;;;5088342;28;20358;-58
2023/09/13 10:44:03;;;;;;;;;;;;;;;;;;5077769;28;19962;-57
2023/09/13 10:46:29;;;;;;;;;;;;;;;;;;5085090;28;19912;-58
2023/09/13 10:48:55;;;;;;;;;;;;;;;;;;5088840;28;20325;-57
2023/09/13 10:51:20;;;;;;;;;;;;;;;;;;5074832;28;19969;-58
2023/09/13 10:53:47;;;;;;;;;;;;;;;;;;5077311;28;19912;-57
2023/09/13 10:56:13;;;;;;;;;;;;;;;;;;5081163;28;19917;-57
2023/09/13 10:58:38;;;;;;;;;;;;;;;;;;5077086;28;19919;-58
2023/09/13 11:01:04;;;;;;;;;;;;;;;;;;5084818;28;20328;-58
2023/09/13 11:03:30;;;;;;;;;;;;;;;;;;5080070;28;20007;-58
2023/09/13 11:05:57;;;;;;;;;;;;;;;;;;5074710;28;19913;-58
2023/09/13 11:08:23;;;;;;;;;;;;;;;;;;5076413;28;19935;-58
2023/09/13 11:10:49;;;;;;;;;;;;;;;;;;5083856;28;20380;-58
2023/09/13 11:13:15;;;;;;;;;;;;;;;;;;5086881;28;19948;-57
2023/09/13 11:15:41;;;;;;;;;;;;;;;;;;5072977;28;19935;-58
2023/09/13 11:18:07;;;;;;;;;;;;;;;;;;5079692;28;20284;-57
2023/09/13 11:20:36;;;;;;;;;;;;;;;;;;5086898;28;19990;-58
2023/09/13 11:23:03;;;;;;;;;;;;;;;;;;5077377;28;20035;-59
2023/09/13 11:25:29;;;;;;;;;;;;;;;;;;5085794;28;19913;-58
2023/09/13 11:27:55;;;;;;;;;;;;;;;;;;5086570;28;19953;-59
2023/09/13 11:30:21;;;;;;;;;;;;;;;;;;5082146;28;19943;-58
2023/09/13 11:32:51;;;;;;;;;;;;;;;;;;5076715;28;19912;-58
2023/09/13 11:35:17;;;;;;;;;;;;;;;;;;5090173;28;19916;-57
2023/09/13 11:37:42;;;;;;;;;;;;;;;;;;5078061;28;19916;-58
2023/09/13 11:40:11;;;;;;;;;;;;;;;;;;5084807;28;20423;-57
2023/09/13 11:42:37;;;;;;;;;;;;;;;;;;5075283;28;20009;-58
2023/09/13 11:45:03;;;;;;;;;;;;;;;;;;5085028;28;19919;-57
2023/09/13 11:47:29;;;;;;;;;;;;;;;;;;5074912;28;19908;-57
2023/09/13 11:49:56;;;;;;;;;;;;;;;;;;5071695;28;19986;-58
2023/09/13 11:52:22;;;;;;;;;;;;;;;;;;5078937;28;20749;-58
2023/09/13 11:54:48;;;;;;;;;;;;;;;;;;5078435;28;20011;-58
2023/09/13 11:57:14;;;;;;;;;;;;;;;;;;5079321;28;19919;-57
2023/09/13 11:59:40;;;;;;;;;;;;;;;;;;5078530;28;19961;-57
2023/09/13 12:02:06;;;;;;;;;;;;;;;;;;5079579;28;19975;-58
2023/09/13 12:04:31;;;;;;;;;;;;;;;;;;5080662;28;19948;-58
2023/09/13 12:06:57;;;;;;;;;;;;;;;;;;5078028;28;19912;-59
2023/09/13 12:09:24;;;;;;;;;;;;;;;;;;5084488;28;20380;-58
2023/09/13 12:11:50;;;;;;;;;;;;;;;;;;5078471;28;19931;-58
2023/09/13 12:14:16;;;;;;;;;;;;;;;;;;5079111;28;19917;-58
2023/09/13 12:16:42;;;;;;;;;;;;;;;;;;5076065;28;19951;-58
2023/09/13 12:19:08;;;;;;;;;;;;;;;;;;5081619;28;19912;-58
2023/09/13 12:21:34;;;;;;;;;;;;;;;;;;5080887;28;20390;-58
2023/09/13 12:24:00;;;;;;;;;;;;;;;;;;5076429;28;20003;-59
2023/09/13 12:26:26;;;;;;;;;;;;;;;;;;5086694;28;20005;-60
2023/09/13 12:28:52;;;;;;;;;;;;;;;;;;5081950;28;19920;-59
2023/09/13 12:31:18;;;;;;;;;;;;;;;;;;5082022;28;19912;-58
2023/09/13 12:33:44;;;;;;;;;;;;;;;;;;5086762;28;19935;-58
2023/09/13 12:36:10;;;;;;;;;;;;;;;;;;5077251;28;20573;-58
2023/09/13 12:38:36;;;;;;;;;;;;;;;;;;5090035;28;20007;-59
2023/09/13 12:41:02;;;;;;;;;;;;;;;;;;5077988;28;19955;-61
2023/09/13 12:43:31;;;;;;;;;;;;;;;;;;5071421;28;19920;-61
2023/09/13 12:45:57;;;;;;;;;;;;;;;;;;5079217;28;20304;-60
2023/09/13 12:48:22;;;;;;;;;;;;;;;;;;5080528;28;20014;-61
2023/09/13 12:50:48;;;;;;;;;;;;;;;;;;5084239;28;19919;-61
2023/09/13 12:53:18;;;;;;;;;;;;;;;;;;5079143;28;20419;-61
2023/09/13 12:55:44;;;;;;;;;;;;;;;;;;5071157;28;19916;-61
2023/09/13 12:58:10;;;;;;;;;;;;;;;;;;5075187;28;19956;-60
2023/09/13 13:00:35;;;;;;;;;;;;;;;;;;5087453;28;19912;-61
2023/09/13 13:03:01;;;;;;;;;;;;;;;;;;5078795;28;19927;-61
2023/09/13 13:05:27;;;;;;;;;;;;;;;;;;5075112;28;19964;-61
2023/09/13 13:07:53;;;;;;;;;;;;;;;;;;5076875;28;19982;-61
2023/09/13 13:10:19;;;;;;;;;;;;;;;;;;5078989;28;19916;-61
2023/09/13 13:12:45;;;;;;;;;;;;;;;;;;5083705;28;20059;-60
2023/09/13 13:15:11;;;;;;;;;;;;;;;;;;5077160;28;19927;-61
2023/09/13 13:17:38;;;;;;;;;;;;;;;;;;5084676;28;19995;-61
2023/09/13 13:20:04;;;;;;;;;;;;;;;;;;5075246;28;19999;-62
2023/09/13 13:22:31;;;;;;;;;;;;;;;;;;5085595;28;20338;-61
2023/09/13 13:24:57;;;;;;;;;;;;;;;;;;5081497;28;19931;-61
2023/09/13 13:27:23;;;;;;;;;;;;;;;;;;5082311;28;20278;-61
2023/09/13 13:29:49;;;;;;;;;;;;;;;;;;5080176;28;19916;-61
2023/09/13 13:32:14;;;;;;;;;;;;;;;;;;5087365;28;19920;-61
2023/09/13 13:34:41;;;;;;;;;;;;;;;;;;5077401;28;19971;-61
2023/09/13 13:37:07;;;;;;;;;;;;;;;;;;5074663;28;19995;-60
2023/09/13 13:39:33;;;;;;;;;;;;;;;;;;5075379;28;20301;-61
2023/09/13 13:41:59;;;;;;;;;;;;;;;;;;5079674;28;19922;-60
2023/09/13 13:44:25;;;;;;;;;;;;;;;;;;5081076;28;20025;-60
2023/09/13 13:46:51;;;;;;;;;;;;;;;;;;5073890;28;19916;-60
2023/09/13 13:49:17;;;;;;;;;;;;;;;;;;5081473;28;19919;-59
2023/09/13 13:51:45;;;;;;;;;;;;;;;;;;5073175;28;20281;-61
2023/09/13 13:54:11;;;;;;;;;;;;;;;;;;5083986;28;19912;-61
2023/09/13 13:56:40;;;;;;;;;;;;;;;;;;5074624;28;20251;-62
2023/09/13 13:59:06;;;;;;;;;;;;;;;;;;5079249;28;20011;-60
2023/09/13 14:01:32;;;;;;;;;;;;;;;;;;5073867;28;20016;-61
2023/09/13 14:03:58;;;;;;;;;;;;;;;;;;5086366;28;20379;-61
2023/09/13 14:06:24;;;;;;;;;;;;;;;;;;5079755;28;19920;-61
2023/09/13 14:08:50;;;;;;;;;;;;;;;;;;5083600;28;19967;-61
2023/09/13 14:11:16;;;;;;;;;;;;;;;;;;5076846;28;20668;-62
2023/09/13 14:13:42;;;;;;;;;;;;;;;;;;5075862;28;19918;-60
2023/09/13 14:16:07;;;;;;;;;;;;;;;;;;5075187;28;20334;-61
2023/09/13 14:18:33;;;;;;;;;;;;;;;;;;5076750;28;19950;-61
2023/09/13 14:20:59;;;;;;;;;;;;;;;;;;5080741;28;20011;-62
2023/09/13 14:23:25;;;;;;;;;;;;;;;;;;5072993;28;20388;-61
2023/09/13 14:25:51;;;;;;;;;;;;;;;;;;5082678;28;19963;-61
2023/09/13 14:28:17;;;;;;;;;;;;;;;;;;5084273;28;19955;-61
2023/09/13 14:30:43;;;;;;;;;;;;;;;;;;5068769;28;20276;-61
2023/09/13 14:33:09;;;;;;;;;;;;;;;;;;5077250;28;19916;-62
2023/09/13 14:35:35;;;;;;;;;;;;;;;;;;5079023;28;19940;-61
2023/09/13 14:38:01;;;;;;;;;;;;;;;;;;5079103;28;19962;-60
2023/09/13 14:40:27;;;;;;;;;;;;;;;;;;5078871;28;20564;-61
2023/09/13 14:42:53;;;;;;;;;;;;;;;;;;5072637;28;19923;-62
2023/09/13 14:45:19;;;;;;;;;;;;;;;;;;5079359;28;19923;-61
2023/09/13 14:47:45;;;;;;;;;;;;;;;;;;5073886;28;19938;-62
2023/09/13 14:50:10;;;;;;;;;;;;;;;;;;5080651;28;19923;-62
2023/09/13 14:52:37;;;;;;;;;;;;;;;;;;5073664;28;19943;-60
2023/09/13 14:55:03;;;;;;;;;;;;;;;;;;5071550;28;20007;-62
2023/09/13 14:57:29;;;;;;;;;;;;;;;;;;5076555;28;19917;-62
2023/09/13 14:59:56;;;;;;;;;;;;;;;;;;5069814;28;19916;-60
2023/09/13 15:02:22;;;;;;;;;;;;;;;;;;5079447;28;19925;-61
2023/09/13 15:04:50;;;;;;;;;;;;;;;;;;5082737;28;20325;-61
2023/09/13 15:07:17;;;;;;;;;;;;;;;;;;5077227;28;19923;-61
2023/09/13 15:09:45;;;;;;;;;;;;;;;;;;5073739;28;19916;-61
2023/09/13 15:12:10;;;;;;;;;;;;;;;;;;5072332;28;19934;-61
2023/09/13 15:14:36;;;;;;;;;;;;;;;;;;5083618;28;20012;-62
2023/09/13 15:17:02;;;;;;;;;;;;;;;;;;5084245;28;20028;-62
2023/09/13 15:19:28;;;;;;;;;;;;;;;;;;5082128;28;20352;-61
2023/09/13 15:21:54;;;;;;;;;;;;;;;;;;5022941;28;1672185;-61
2023/09/13 15:24:20;;;;;;;;;;;;;;;;;;5076026;28;20616;-61
2023/09/13 15:26:46;;;;;;;;;;;;;;;;;;5078644;28;20633;-61
2023/09/13 15:29:12;;;;;;;;;;;;;;;;;;5075030;28;20401;-61
2023/09/13 15:31:38;;;;;;;;;;;;;;;;;;5082011;28;19962;-61
2023/09/13 15:34:08;;;;;;;;;;;;;;;;;;5086697;28;19961;-62
2023/09/13 15:36:34;;;;;;;;;;;;;;;;;;5074541;28;19916;-60
2023/09/13 15:39:00;;;;;;;;;;;;;;;;;;5083523;28;19978;-61
2023/09/13 15:41:26;;;;;;;;;;;;;;;;;;5081880;28;19990;-60
2023/09/13 15:43:51;;;;;;;;;;;;;;;;;;5091317;28;19915;-61
2023/09/13 15:46:17;;;;;;;;;;;;;;;;;;5077781;28;19960;-61
2023/09/13 15:48:43;;;;;;;;;;;;;;;;;;5079771;28;19919;-60
2023/09/13 15:51:09;;;;;;;;;;;;;;;;;;5078330;28;19947;-60
2023/09/13 15:53:35;;;;;;;;;;;;;;;;;;5077840;28;19912;-60
2023/09/13 15:56:01;;;;;;;;;;;;;;;;;;5088611;28;19984;-60
2023/09/13 15:58:27;;;;;;;;;;;;;;;;;;5075449;28;20048;-60
2023/09/13 16:00:54;;;;;;;;;;;;;;;;;;5081805;28;20383;-60
2023/09/13 16:03:20;;;;;;;;;;;;;;;;;;5073715;28;19951;-60
2023/09/13 16:05:46;;;;;;;;;;;;;;;;;;5084658;28;19912;-60
2023/09/13 16:08:12;;;;;;;;;;;;;;;;;;5082593;28;19956;-60
2023/09/13 16:10:39;;;;;;;;;;;;;;;;;;5080530;28;20549;-61
2023/09/13 16:13:05;;;;;;;;;;;;;;;;;;5090320;28;20350;-60
2023/09/13 16:15:30;;;;;;;;;;;;;;;;;;5085455;28;20220;-58
2023/09/13 16:17:56;;;;;;;;;;;;;;;;;;5085609;28;19916;-58
2023/09/13 16:20:22;;;;;;;;;;;;;;;;;;5085185;28;19970;-58
2023/09/13 16:22:50;;;;;;;;;;;;;;;;;;5078686;28;19970;-60
2023/09/13 16:25:16;;;;;;;;;;;;;;;;;;5079351;28;19920;-58
2023/09/13 16:27:42;;;;;;;;;;;;;;;;;;5079148;28;19920;-57
2023/09/13 16:30:08;;;;;;;;;;;;;;;;;;5079869;28;19952;-58
2023/09/13 16:32:34;;;;;;;;;;;;;;;;;;5076647;28;20010;-58
2023/09/13 16:35:00;;;;;;;;;;;;;;;;;;5077079;28;19947;-58
2023/09/13 16:37:26;;;;;;;;;;;;;;;;;;5073886;28;19919;-60